createdAt,value
2024-04-06T00:00:18.948Z,12.32
2024-04-06T00:02:54.029Z,12.33
2024-04-06T00:05:24.871Z,12.34
2024-04-06T00:07:59.778Z,12.35
2024-04-06T00:10:38.288Z,12.35
2024-04-06T00:13:08.007Z,12.37
2024-04-06T00:15:35.264Z,12.38
2024-04-06T00:18:02.380Z,12.38
2024-04-06T00:20:34.604Z,12.40
2024-04-06T00:23:04.676Z,12.41
2024-04-06T00:25:32.287Z,12.41
2024-04-06T00:28:00.155Z,12.42
2024-04-06T00:30:30.250Z,12.44
2024-04-06T00:32:59.751Z,12.45
2024-04-06T00:35:29.170Z,12.46
2024-04-06T00:37:56.214Z,12.47
2024-04-06T00:40:23.277Z,12.49
2024-04-06T00:42:53.042Z,12.49
2024-04-06T00:45:22.674Z,12.50
2024-04-06T00:47:52.332Z,12.49
2024-04-06T00:50:22.922Z,12.48
2024-04-06T00:52:50.292Z,12.48
2024-04-06T00:55:20.808Z,12.48
2024-04-06T00:57:50.304Z,12.49
2024-04-06T01:00:20.707Z,12.51
2024-04-06T01:02:52.539Z,12.54
2024-04-06T01:05:25.090Z,12.57
2024-04-06T01:07:54.529Z,12.61
2024-04-06T01:10:21.578Z,12.65
2024-04-06T01:12:53.857Z,12.68
2024-04-06T01:15:23.321Z,12.71
2024-04-06T01:17:52.567Z,12.74
2024-04-06T01:20:25.314Z,12.77
2024-04-06T01:23:00.899Z,12.80
2024-04-06T01:25:33.382Z,12.82
2024-04-06T01:28:00.425Z,12.86
2024-04-06T01:30:28.099Z,12.88
2024-04-06T01:32:55.146Z,12.88
2024-04-06T01:35:25.268Z,12.90
2024-04-06T01:37:53.093Z,12.92
2024-04-06T01:40:23.153Z,12.94
2024-04-06T01:42:52.889Z,12.96
2024-04-06T01:45:22.438Z,12.97
2024-04-06T01:47:55.873Z,12.98
2024-04-06T01:50:22.928Z,12.99
2024-04-06T01:52:52.436Z,12.99
2024-04-06T01:55:19.544Z,13.01
2024-04-06T01:57:48.998Z,13.02
2024-04-06T02:00:16.084Z,13.02
2024-04-06T02:02:50.280Z,13.03
2024-04-06T02:05:22.290Z,13.04
2024-04-06T02:07:49.344Z,13.03
2024-04-06T02:10:21.766Z,13.02
2024-04-06T02:12:51.660Z,12.99
2024-04-06T02:15:24.315Z,12.97
2024-04-06T02:17:54.251Z,12.95
2024-04-06T02:20:23.744Z,12.93
2024-04-06T02:22:53.475Z,12.92
2024-04-06T02:25:26.012Z,12.91
2024-04-06T02:27:56.083Z,12.91
2024-04-06T02:30:26.272Z,12.91
2024-04-06T02:32:56.158Z,12.91
2024-04-06T02:35:26.345Z,12.90
2024-04-06T02:37:55.492Z,12.90
2024-04-06T02:40:28.270Z,12.90
2024-04-06T02:42:55.302Z,12.90
2024-04-06T02:45:27.943Z,12.90
2024-04-06T02:47:54.993Z,12.90
2024-04-06T02:50:22.100Z,12.90
2024-04-06T02:52:54.682Z,12.89
2024-04-06T02:55:28.314Z,12.88
2024-04-06T02:57:57.762Z,12.88
2024-04-06T03:00:26.292Z,12.88
2024-04-06T03:02:58.168Z,12.87
2024-04-06T03:05:27.698Z,12.86
2024-04-06T03:08:03.362Z,12.85
2024-04-06T03:10:38.331Z,12.82
2024-04-06T03:13:08.302Z,12.80
2024-04-06T03:15:40.483Z,12.79
2024-04-06T03:18:09.767Z,12.79
2024-04-06T03:20:39.457Z,12.81
2024-04-06T03:23:11.350Z,12.82
2024-04-06T03:25:40.659Z,12.83
2024-04-06T03:28:13.717Z,12.84
2024-04-06T03:30:43.090Z,12.84
2024-04-06T03:33:10.502Z,12.85
2024-04-06T03:35:37.518Z,12.86
2024-04-06T03:38:04.566Z,12.88
2024-04-06T03:40:34.530Z,12.89
2024-04-06T03:43:07.241Z,12.91
2024-04-06T03:45:37.222Z,12.91
2024-04-06T03:48:09.640Z,12.93
2024-04-06T03:50:39.197Z,12.94
2024-04-06T03:53:09.768Z,12.94
2024-04-06T03:55:39.047Z,12.93
2024-04-06T03:58:08.353Z,12.93
2024-04-06T04:00:38.491Z,12.93
2024-04-06T04:03:07.903Z,12.93
2024-04-06T04:05:37.224Z,12.92
2024-04-06T04:08:07.203Z,12.91
2024-04-06T04:10:35.288Z,12.90
2024-04-06T04:13:10.808Z,12.89
2024-04-06T04:15:46.381Z,12.88
2024-04-06T04:18:18.064Z,12.87
2024-04-06T04:20:45.238Z,12.86
2024-04-06T04:23:14.960Z,12.85
2024-04-06T04:25:44.393Z,12.84
2024-04-06T04:28:11.512Z,12.83
2024-04-06T04:30:43.781Z,12.82
2024-04-06T04:33:10.890Z,12.80
2024-04-06T04:35:40.107Z,12.79
2024-04-06T04:38:12.495Z,12.77
2024-04-06T04:40:44.908Z,12.75
2024-04-06T04:43:14.856Z,12.74
2024-04-06T04:45:47.398Z,12.73
2024-04-06T04:48:16.931Z,12.71
2024-04-06T04:50:44.153Z,12.70
2024-04-06T04:53:19.516Z,12.69
2024-04-06T04:55:52.453Z,12.68
2024-04-06T04:58:19.462Z,12.66
2024-04-06T05:00:49.047Z,12.65
2024-04-06T05:03:21.372Z,12.64
2024-04-06T05:05:49.225Z,12.63
2024-04-06T05:08:18.564Z,12.63
2024-04-06T05:10:51.455Z,12.63
2024-04-06T05:13:21.289Z,12.62
2024-04-06T05:15:51.139Z,12.62
2024-04-06T05:18:18.182Z,12.62
2024-04-06T05:20:51.762Z,12.63
2024-04-06T05:23:25.282Z,12.65
2024-04-06T05:25:55.696Z,12.66
2024-04-06T05:28:26.686Z,12.68
2024-04-06T05:30:56.934Z,12.70
2024-04-06T05:33:29.990Z,12.73
2024-04-06T05:36:02.781Z,12.75
2024-04-06T05:38:32.964Z,12.79
2024-04-06T05:41:02.271Z,12.84
2024-04-06T05:43:34.157Z,12.87
2024-04-06T05:46:04.486Z,12.90
2024-04-06T05:48:39.131Z,12.95
2024-04-06T05:51:08.594Z,12.99
2024-04-06T05:53:38.378Z,13.03
2024-04-06T05:56:09.385Z,13.09
2024-04-06T05:58:38.289Z,13.15
2024-04-06T06:01:05.397Z,13.22
2024-04-06T06:03:35.526Z,13.27
2024-04-06T06:06:10.254Z,13.32
2024-04-06T06:08:41.991Z,13.38
2024-04-06T06:11:15.391Z,13.43
2024-04-06T06:13:42.592Z,13.50
2024-04-06T06:16:14.703Z,13.56
2024-04-06T06:18:41.750Z,13.60
2024-04-06T06:21:11.228Z,13.65
2024-04-06T06:23:38.639Z,13.70
2024-04-06T06:26:05.738Z,13.75
2024-04-06T06:28:35.782Z,13.81
2024-04-06T06:31:12.970Z,13.86
2024-04-06T06:33:45.501Z,13.92
2024-04-06T06:41:19.394Z,14.04
2024-04-06T06:43:49.249Z,14.09
2024-04-06T06:46:22.150Z,14.12
2024-04-06T06:48:51.609Z,14.15
2024-04-06T06:51:18.696Z,14.16
2024-04-06T06:53:48.933Z,14.18
2024-04-06T06:56:23.867Z,14.23
2024-04-06T06:58:54.086Z,14.29
2024-04-06T07:01:26.081Z,14.38
2024-04-06T07:03:54.191Z,14.45
2024-04-06T07:11:27.061Z,14.71
2024-04-06T07:13:56.325Z,14.81
2024-04-06T07:16:31.816Z,14.92
2024-04-06T07:18:58.890Z,15.02
2024-04-06T07:21:29.831Z,15.10
2024-04-06T07:24:02.039Z,15.19
2024-04-06T07:26:31.680Z,15.33
2024-04-06T07:29:01.502Z,15.42
2024-04-06T07:31:28.566Z,15.52
2024-04-06T07:33:58.830Z,15.57
2024-04-06T07:36:28.112Z,15.63
2024-04-06T07:41:35.396Z,15.80
2024-04-06T07:44:09.274Z,15.87
2024-04-06T07:46:42.173Z,15.94
2024-04-06T07:49:11.944Z,16.03
2024-04-06T07:51:43.725Z,16.11
2024-04-06T07:54:11.220Z,16.19
2024-04-06T07:56:43.395Z,16.25
2024-04-06T07:59:17.455Z,16.35
2024-04-06T08:01:47.409Z,16.45
2024-04-06T08:04:19.287Z,16.55
2024-04-06T08:06:48.602Z,16.63
2024-04-06T08:09:17.382Z,16.74
2024-04-06T08:11:47.350Z,16.87
2024-04-06T08:14:25.117Z,16.98
2024-04-06T08:16:57.285Z,17.05
2024-04-06T08:19:24.369Z,17.10
2024-04-06T08:21:53.445Z,17.15
2024-04-06T08:24:23.298Z,17.21
2024-04-06T08:26:51.147Z,17.27
2024-04-06T08:29:20.581Z,17.33
2024-04-06T08:31:49.797Z,17.42
2024-04-06T08:34:19.804Z,17.50
2024-04-06T08:36:46.762Z,17.55
2024-04-06T08:39:13.761Z,17.67
2024-04-06T08:41:41.322Z,17.77
2024-04-06T08:44:12.384Z,17.91
2024-04-06T08:46:41.326Z,17.99
2024-04-06T08:49:13.865Z,18.07
2024-04-06T08:51:42.087Z,18.20
2024-04-06T08:54:09.463Z,18.41
2024-04-06T08:56:37.207Z,18.56
2024-04-06T08:59:04.789Z,18.75
2024-04-06T09:01:34.112Z,18.91
2024-04-06T09:04:07.354Z,19.02
2024-04-06T09:06:40.070Z,19.18
2024-04-06T09:09:07.886Z,19.33
2024-04-06T09:11:35.055Z,19.51
2024-04-06T09:14:05.384Z,19.67
2024-04-06T09:16:32.343Z,19.80
2024-04-06T09:18:59.345Z,19.96
2024-04-06T09:21:29.159Z,20.06
2024-04-06T09:24:01.779Z,20.19
2024-04-06T09:26:35.039Z,20.31
2024-04-06T09:29:08.712Z,20.40
2024-04-06T09:31:38.512Z,20.51
2024-04-06T09:34:07.961Z,20.63
2024-04-06T09:36:40.635Z,20.71
2024-04-06T09:39:10.750Z,20.86
2024-04-06T09:41:41.198Z,20.94
2024-04-06T09:44:09.799Z,21.00
2024-04-06T09:46:40.419Z,21.09
2024-04-06T09:49:08.494Z,21.19
2024-04-06T09:51:38.506Z,21.35
2024-04-06T09:54:08.005Z,21.42
2024-04-06T09:56:35.137Z,21.50
2024-04-06T09:59:02.123Z,21.53
2024-04-06T10:01:29.216Z,21.57
2024-04-06T10:04:00.253Z,21.57
2024-04-06T10:06:29.753Z,21.58
2024-04-06T10:09:12.239Z,21.61
2024-04-06T10:11:39.277Z,21.66
2024-04-06T10:14:06.828Z,21.73
2024-04-06T10:16:37.251Z,21.73
2024-04-06T10:19:10.838Z,21.79
2024-04-06T10:21:43.064Z,21.84
2024-04-06T10:24:13.876Z,21.86
2024-04-06T10:26:51.523Z,21.93
2024-04-06T10:29:22.259Z,21.96
2024-04-06T10:31:49.517Z,22.04
2024-04-06T10:34:18.823Z,22.02
2024-04-06T10:36:47.342Z,22.09
2024-04-06T10:39:17.911Z,22.22
2024-04-06T10:41:45.033Z,22.30
2024-04-06T10:44:12.406Z,22.37
2024-04-06T10:46:40.111Z,22.40
2024-04-06T10:49:12.161Z,22.45
2024-04-06T10:51:40.482Z,22.50
2024-04-06T10:54:08.683Z,22.58
2024-04-06T10:56:35.694Z,22.63
2024-04-06T10:59:03.333Z,22.70
2024-04-06T11:01:40.666Z,22.75
2024-04-06T11:04:12.174Z,22.86
2024-04-06T11:06:42.183Z,22.96
2024-04-06T11:09:11.536Z,23.00
2024-04-06T11:11:44.346Z,23.03
2024-04-06T11:14:13.888Z,23.05
2024-04-06T11:16:44.331Z,23.05
2024-04-06T11:19:14.471Z,23.09
2024-04-06T11:21:44.165Z,23.11
2024-04-06T11:24:16.677Z,23.14
2024-04-06T11:26:43.712Z,23.18
2024-04-06T11:29:14.680Z,23.29
2024-04-06T11:31:48.763Z,23.39
2024-04-06T11:34:18.330Z,23.52
2024-04-06T11:36:47.868Z,23.67
2024-04-06T11:39:23.601Z,23.79
2024-04-06T11:41:53.419Z,23.82
2024-04-06T11:44:25.412Z,23.88
2024-04-06T11:46:55.185Z,23.96
2024-04-06T11:49:23.998Z,24.06
2024-04-06T11:51:53.883Z,24.09
2024-04-06T11:54:23.642Z,24.13
2024-04-06T11:56:54.789Z,24.18
2024-04-06T11:59:24.754Z,24.25
2024-04-06T12:01:55.129Z,24.33
2024-04-06T12:04:25.767Z,24.38
2024-04-06T12:06:56.963Z,24.42
2024-04-06T12:09:29.737Z,24.46
2024-04-06T12:12:02.250Z,24.50
2024-04-06T12:14:34.817Z,24.60
2024-04-06T12:17:04.347Z,24.79
2024-04-06T12:19:31.490Z,24.81
2024-04-06T12:22:01.387Z,24.89
2024-04-06T12:24:31.813Z,24.92
2024-04-06T12:27:04.328Z,25.04
2024-04-06T12:29:31.423Z,25.16
2024-04-06T12:32:01.417Z,25.24
2024-04-06T12:34:29.212Z,25.30
2024-04-06T12:37:01.583Z,25.42
2024-04-06T12:39:30.773Z,25.66
2024-04-06T12:42:00.413Z,25.86
2024-04-06T12:44:27.461Z,25.96
2024-04-06T12:46:57.208Z,26.03
2024-04-06T12:49:30.630Z,26.09
2024-04-06T12:52:03.371Z,26.16
2024-04-06T12:54:31.045Z,26.18
2024-04-06T12:57:19.717Z,26.22
2024-04-06T12:59:47.110Z,26.26
2024-04-06T13:02:18.520Z,26.27
2024-04-06T13:04:52.799Z,26.28
2024-04-06T13:07:25.636Z,26.31
2024-04-06T13:09:56.142Z,26.33
2024-04-06T13:12:41.095Z,26.41
2024-04-06T13:15:18.190Z,26.50
2024-04-06T13:17:51.422Z,26.58
2024-04-06T13:20:38.031Z,26.65
2024-04-06T13:23:08.452Z,26.74
2024-04-06T13:25:40.720Z,26.90
2024-04-06T13:28:10.102Z,26.97
2024-04-06T13:30:41.563Z,27.06
2024-04-06T13:33:11.654Z,27.16
2024-04-06T13:35:42.176Z,27.43
2024-04-06T13:38:09.235Z,27.77
2024-04-06T13:40:38.580Z,28.14
2024-04-06T13:43:11.296Z,28.31
2024-04-06T13:45:48.299Z,28.41
2024-04-06T13:48:15.526Z,28.63
2024-04-06T13:50:45.374Z,28.78
2024-04-06T13:53:20.418Z,28.99
2024-04-06T13:55:50.845Z,29.11
2024-04-06T13:58:23.492Z,29.26
2024-04-06T14:00:59.115Z,29.31
2024-04-06T14:03:26.548Z,29.47
2024-04-06T14:05:58.342Z,29.57
2024-04-06T14:08:27.978Z,29.75
2024-04-06T14:10:55.055Z,30.08
2024-04-06T14:13:33.638Z,30.30
2024-04-06T14:16:05.674Z,30.33
2024-04-06T14:18:35.690Z,30.41
2024-04-06T14:21:08.727Z,30.43
2024-04-06T14:23:36.100Z,30.45
2024-04-06T14:26:06.644Z,30.48
2024-04-06T14:28:36.715Z,30.39
2024-04-06T14:31:05.943Z,30.24
2024-04-06T14:33:35.700Z,30.23
2024-04-06T14:36:09.718Z,30.23
2024-04-06T14:38:39.156Z,30.24
2024-04-06T14:41:11.720Z,30.25
2024-04-06T14:43:38.847Z,30.29
2024-04-06T14:46:10.761Z,30.38
2024-04-06T14:48:38.184Z,30.42
2024-04-06T14:51:13.297Z,30.61
2024-04-06T14:53:43.387Z,30.84
2024-04-06T14:56:13.673Z,30.93
2024-04-06T14:58:43.495Z,30.75
2024-04-06T15:01:16.911Z,30.47
2024-04-06T15:03:46.288Z,30.38
2024-04-06T15:06:21.186Z,30.37
2024-04-06T15:08:51.092Z,30.27
2024-04-06T15:11:23.580Z,30.22
2024-04-06T15:13:56.005Z,30.13
2024-04-06T15:16:23.255Z,30.15
2024-04-06T15:18:52.855Z,30.16
2024-04-06T15:21:22.881Z,30.09
2024-04-06T15:23:53.479Z,29.98
2024-04-06T15:26:22.963Z,29.81
2024-04-06T15:28:53.063Z,29.65
2024-04-06T15:31:25.457Z,29.44
2024-04-06T15:33:57.963Z,29.17
2024-04-06T15:36:30.612Z,28.86
2024-04-06T15:39:00.283Z,28.57
2024-04-06T15:41:33.430Z,28.45
2024-04-06T15:44:01.785Z,28.31
2024-04-06T15:46:34.040Z,28.15
2024-04-06T15:49:03.960Z,28.02
2024-04-06T15:51:36.692Z,27.89
2024-04-06T15:54:07.194Z,27.72
2024-04-06T15:56:40.228Z,27.52
2024-04-06T15:59:12.575Z,27.45
2024-04-06T16:01:46.491Z,27.39
2024-04-06T16:04:18.839Z,27.29
2024-04-06T16:06:49.640Z,27.26
2024-04-06T16:09:25.267Z,27.25
2024-04-06T16:11:55.302Z,27.24
2024-04-06T16:14:25.210Z,27.26
2024-04-06T16:17:00.873Z,27.26
2024-04-06T16:19:28.111Z,27.25
2024-04-06T16:22:00.662Z,27.21
2024-04-06T16:24:33.895Z,27.12
2024-04-06T16:27:04.427Z,27.01
2024-04-06T16:29:34.439Z,26.94
2024-04-06T16:32:07.129Z,26.79
2024-04-06T16:34:41.021Z,26.70
2024-04-06T16:37:10.967Z,26.51
2024-04-06T16:39:42.689Z,26.31
2024-04-06T16:42:15.537Z,26.15
2024-04-06T16:44:47.866Z,26.00
2024-04-06T16:47:20.214Z,25.83
2024-04-06T16:49:52.925Z,25.70
2024-04-06T16:52:27.772Z,25.53
2024-04-06T16:55:00.276Z,25.34
2024-04-06T16:57:30.049Z,25.11
2024-04-06T17:00:02.004Z,24.94
2024-04-06T17:02:34.691Z,24.77
2024-04-06T17:05:08.058Z,24.61
2024-04-06T17:07:35.220Z,24.45
2024-04-06T17:10:07.555Z,24.34
2024-04-06T17:12:37.619Z,24.21
2024-04-06T17:15:07.014Z,24.10
2024-04-06T17:17:37.420Z,24.01
2024-04-06T17:20:10.223Z,23.91
2024-04-06T17:22:39.676Z,23.82
2024-04-06T17:25:10.131Z,23.73
2024-04-06T17:27:40.500Z,23.66
2024-04-06T17:30:15.335Z,23.58
2024-04-06T17:32:44.927Z,23.52
2024-04-06T17:35:16.515Z,23.43
2024-04-06T17:37:46.471Z,23.34
2024-04-06T17:40:19.539Z,23.22
2024-04-06T17:42:47.563Z,23.13
2024-04-06T17:45:19.921Z,23.01
2024-04-06T17:47:50.049Z,22.89
2024-04-06T17:50:21.632Z,22.80
2024-04-06T17:52:53.475Z,22.69
2024-04-06T17:55:22.877Z,22.60
2024-04-06T17:57:54.897Z,22.50
2024-04-06T18:00:27.495Z,22.39
2024-04-06T18:03:02.825Z,22.27
2024-04-06T18:05:32.216Z,22.17
2024-04-06T18:08:03.350Z,22.08
2024-04-06T18:10:43.469Z,21.99
2024-04-06T18:13:13.160Z,21.91
2024-04-06T18:15:45.485Z,21.84
2024-04-06T18:18:16.911Z,21.77
2024-04-06T18:20:49.195Z,21.72
2024-04-06T18:23:25.364Z,21.68
2024-04-06T18:25:57.332Z,21.64
2024-04-06T18:28:26.928Z,21.60
2024-04-06T18:30:59.541Z,21.53
2024-04-06T18:33:29.709Z,21.48
2024-04-06T18:35:56.941Z,21.44
2024-04-06T18:38:26.410Z,21.39
2024-04-06T18:41:00.862Z,21.35
2024-04-06T18:43:31.092Z,21.31
2024-04-06T18:46:03.738Z,21.27
2024-04-06T18:48:35.484Z,21.22
2024-04-06T18:51:02.728Z,21.18
2024-04-06T18:53:36.209Z,21.14
2024-04-06T18:56:06.143Z,21.10
2024-04-06T18:58:35.946Z,21.06
2024-04-06T19:01:04.430Z,21.03
2024-04-06T19:03:37.010Z,21.00
2024-04-06T19:06:04.200Z,20.96
2024-04-06T19:08:36.543Z,20.92
2024-04-06T19:11:06.942Z,20.88
2024-04-06T19:13:36.535Z,20.83
2024-04-06T19:16:04.166Z,20.79
2024-04-06T19:18:34.293Z,20.74
2024-04-06T19:21:06.851Z,20.68
2024-04-06T19:23:34.196Z,20.64
2024-04-06T19:26:04.137Z,20.58
2024-04-06T19:28:31.180Z,20.52
2024-04-06T19:31:03.825Z,20.45
2024-04-06T19:33:36.361Z,20.39
2024-04-06T19:36:06.529Z,20.33
2024-04-06T19:38:36.306Z,20.28
2024-04-06T19:41:08.140Z,20.22
2024-04-06T19:43:41.370Z,20.18
2024-04-06T19:46:10.887Z,20.13
2024-04-06T19:48:42.711Z,20.09
2024-04-06T19:51:12.373Z,20.05
2024-04-06T19:53:41.798Z,20.01
2024-04-06T19:56:14.255Z,19.97
2024-04-06T19:58:50.450Z,19.93
2024-04-06T20:01:17.524Z,19.89
2024-04-06T20:03:47.037Z,19.85
2024-04-06T20:06:19.300Z,19.81
2024-04-06T20:08:52.300Z,19.78
2024-04-06T20:11:21.723Z,19.75
2024-04-06T20:13:51.739Z,19.70
2024-04-06T20:16:23.834Z,19.65
2024-04-06T20:18:51.662Z,19.59
2024-04-06T20:21:23.729Z,19.54
2024-04-06T20:24:12.502Z,19.47
2024-04-06T20:26:42.476Z,19.41
2024-04-06T20:29:15.429Z,19.35
2024-04-06T20:31:54.171Z,19.30
2024-04-06T20:34:21.412Z,19.27
2024-04-06T20:37:03.036Z,19.24
2024-04-06T20:39:34.974Z,19.21
2024-04-06T20:42:04.748Z,19.20
2024-04-06T20:44:37.521Z,19.18
2024-04-06T20:47:09.901Z,19.15
2024-04-06T20:49:39.409Z,19.10
2024-04-06T20:52:12.717Z,19.07
2024-04-06T20:54:48.083Z,19.03
2024-04-06T20:57:20.437Z,19.00
2024-04-06T20:59:52.554Z,18.98
2024-04-06T21:02:24.716Z,18.95
2024-04-06T21:04:54.185Z,18.92
2024-04-06T21:07:29.393Z,18.89
2024-04-06T21:10:04.470Z,18.84
2024-04-06T21:12:36.524Z,18.77
2024-04-06T21:15:08.385Z,18.72
2024-04-06T21:17:35.498Z,18.68
2024-04-06T21:20:04.001Z,18.65
2024-04-06T21:22:34.366Z,18.61
2024-04-06T21:25:04.653Z,18.58
2024-04-06T21:27:34.284Z,18.53
2024-04-06T21:30:06.752Z,18.47
2024-04-06T21:32:38.525Z,18.41
2024-04-06T21:35:06.275Z,18.35
2024-04-06T21:37:33.856Z,18.29
2024-04-06T21:40:00.938Z,18.22
2024-04-06T21:42:30.242Z,18.14
2024-04-06T21:44:57.537Z,18.08
2024-04-06T21:47:24.608Z,18.03
2024-04-06T21:49:56.215Z,17.97
2024-04-06T21:52:23.226Z,17.91
2024-04-06T21:54:51.122Z,17.87
2024-04-06T21:57:20.730Z,17.83
2024-04-06T21:59:52.666Z,17.80
2024-04-06T22:02:22.137Z,17.76
2024-04-06T22:04:51.517Z,17.73
2024-04-06T22:07:18.539Z,17.70
2024-04-06T22:09:45.735Z,17.66
2024-04-06T22:12:15.078Z,17.63
2024-04-06T22:14:42.636Z,17.60
2024-04-06T22:17:12.811Z,17.58
2024-04-06T22:19:45.013Z,17.55
2024-04-06T22:22:14.289Z,17.52
2024-04-06T22:24:41.438Z,17.49
2024-04-06T22:27:13.490Z,17.46
2024-04-06T22:29:40.571Z,17.43
2024-04-06T22:32:08.724Z,17.41
2024-04-06T22:34:36.076Z,17.39
2024-04-06T22:37:08.882Z,17.35
2024-04-06T22:39:35.898Z,17.31
2024-04-06T22:42:05.709Z,17.29
2024-04-06T22:44:43.161Z,17.25
2024-04-06T22:47:13.222Z,17.21
2024-04-06T22:49:43.293Z,17.15
2024-04-06T22:52:12.951Z,17.10
2024-04-06T22:54:42.371Z,17.05
2024-04-06T22:57:11.733Z,17.02
2024-04-06T22:59:43.851Z,16.99
2024-04-06T23:02:16.681Z,16.96
2024-04-06T23:04:49.636Z,16.92
2024-04-06T23:07:19.100Z,16.89
2024-04-06T23:09:51.674Z,16.87
2024-04-06T23:12:21.547Z,16.86
2024-04-06T23:14:50.034Z,16.85
2024-04-06T23:17:22.210Z,16.85
2024-04-06T23:19:50.022Z,16.83
2024-04-06T23:22:22.256Z,16.81
2024-04-06T23:24:54.159Z,16.79
2024-04-06T23:27:26.747Z,16.76
2024-04-06T23:29:56.456Z,16.72
2024-04-06T23:32:25.657Z,16.68
2024-04-06T23:34:57.335Z,16.67
2024-04-06T23:37:24.441Z,16.66
2024-04-06T23:39:53.893Z,16.65
2024-04-06T23:42:24.224Z,16.64
2024-04-06T23:44:55.526Z,16.65
2024-04-06T23:47:22.828Z,16.63
2024-04-06T23:49:53.059Z,16.63
2024-04-06T23:52:22.496Z,16.63
2024-04-06T23:54:54.845Z,16.63
2024-04-06T23:57:27.814Z,16.62
2024-04-06T23:59:54.823Z,16.61
